Time;durP1;ratioP1;P1;durP2;ratioP2;P2;SDS_P1;SDS_P2;PMS_P1;PMS_P2;Temp;Humidity;BMP_temperature;BMP_pressure;BME280_temperature;BME280_humidity;BME280_pressure;Samples;Min_cycle;Max_cycle;Signal;HPM_P1;HPM_P2
2022/03/09 00:02:12;;;;;;;6.00;2.93;;;;;;;-0.39;73.01;101857.66;6025383;28;20293;-71
2022/03/09 00:05:07;;;;;;;5.23;2.73;;;;;;;-0.28;72.22;101863.38;6026429;28;20767;-71
2022/03/09 00:08:03;;;;;;;8.18;2.28;;;;;;;-0.32;72.62;101866.09;6026627;28;20267;-71
2022/03/09 00:10:58;;;;;;;5.07;2.38;;;;;;;-0.22;72.68;101872.75;6025097;28;20035;-71
2022/03/09 00:13:54;;;;;;;3.60;1.93;;;;;;;-0.17;72.33;101855.22;6026548;28;20048;-72
2022/03/09 00:16:50;;;;;;;6.00;2.77;;;;;;;-0.14;71.67;101861.19;6025303;28;20621;-70
2022/03/09 00:19:45;;;;;;;7.18;3.08;;;;;;;-0.17;71.68;101861.28;6025971;28;20291;-72
2022/03/09 00:22:41;;;;;;;5.03;2.37;;;;;;;-0.31;72.35;101871.28;6025006;28;20034;-72
2022/03/09 00:25:36;;;;;;;8.87;2.60;;;;;;;-0.31;72.04;101870.44;6025322;28;20334;-73
2022/03/09 00:28:32;;;;;;;8.53;2.70;;;;;;;-0.51;71.83;101872.78;6026422;28;20421;-72
2022/03/09 00:31:27;;;;;;;5.53;2.45;;;;;;;-0.38;72.53;101882.78;6025002;28;20109;-72
2022/03/09 00:34:22;;;;;;;9.37;3.50;;;;;;;-0.22;72.20;101881.41;6025412;28;20049;-70
2022/03/09 00:37:18;;;;;;;6.07;2.53;;;;;;;-0.19;71.76;101886.50;6025030;28;20439;-71
2022/03/09 00:40:13;;;;;;;5.60;2.13;;;;;;;-0.31;72.02;101884.31;6024790;28;20018;-73
2022/03/09 00:43:08;;;;;;;8.63;2.70;;;;;;;-0.30;72.14;101886.00;6025770;28;20038;-71
2022/03/09 00:46:03;;;;;;;5.93;2.70;;;;;;;-0.54;72.17;101884.16;6025874;28;20032;-72
2022/03/09 00:48:59;;;;;;;5.70;1.90;;;;;;;-0.40;72.59;101879.38;6025494;28;20478;-74
2022/03/09 00:51:54;;;;;;;4.57;2.10;;;;;;;-0.33;73.19;101880.91;6024958;28;20031;-71
2022/03/09 00:54:49;;;;;;;6.13;2.27;;;;;;;-0.30;73.33;101895.59;6024680;28;20657;-73
2022/03/09 00:57:45;;;;;;;4.83;2.03;;;;;;;-0.67;72.66;101893.25;6025633;28;20373;-71
2022/03/09 01:00:40;;;;;;;6.43;2.50;;;;;;;-0.73;74.94;101888.22;6024514;28;20038;-70
2022/03/09 01:03:35;;;;;;;6.67;1.97;;;;;;;-0.58;74.61;101892.97;6025773;28;20033;-73
2022/03/09 01:06:31;;;;;;;5.13;2.50;;;;;;;-0.65;74.05;101878.41;6025006;28;20109;-72
2022/03/09 01:09:26;;;;;;;4.68;1.92;;;;;;;-0.71;73.15;101887.28;6025135;28;20030;-70
2022/03/09 01:12:21;;;;;;;5.73;2.40;;;;;;;-0.69;74.78;101893.31;6024780;28;20066;-72
2022/03/09 01:15:17;;;;;;;5.60;2.27;;;;;;;-1.11;75.41;101894.53;6025446;28;20034;-71
2022/03/09 01:18:12;;;;;;;4.50;1.70;;;;;;;-0.92;76.29;101894.84;6025693;28;20274;-72
2022/03/09 01:21:07;;;;;;;7.93;2.33;;;;;;;-0.96;75.96;101882.84;6024526;28;20069;-71
2022/03/09 01:24:03;;;;;;;5.33;2.03;;;;;;;-0.95;76.94;101892.38;6025264;28;20030;-71
2022/03/09 01:26:58;;;;;;;7.47;2.40;;;;;;;-1.28;76.78;101892.41;6025385;28;20409;-72
2022/03/09 01:29:54;;;;;;;4.60;2.07;;;;;;;-0.93;77.88;101883.63;6025426;28;20030;-70
2022/03/09 01:32:49;;;;;;;6.47;2.53;;;;;;;-1.08;76.96;101883.19;6024779;28;20026;-71
2022/03/09 01:35:44;;;;;;;5.57;2.05;;;;;;;-1.15;75.83;101881.66;6027444;28;20085;-70
2022/03/09 01:38:40;;;;;;;6.13;2.13;;;;;;;-1.14;77.67;101897.22;6029303;28;20432;-70
2022/03/09 01:41:35;;;;;;;7.37;2.53;;;;;;;-1.64;77.12;101903.81;6028428;28;20284;-73
2022/03/09 01:44:30;;;;;;;8.90;2.47;;;;;;;-1.87;78.07;101904.38;6029696;28;20639;-73
2022/03/09 01:47:26;;;;;;;6.57;2.40;;;;;;;-1.83;79.51;101906.03;6029127;28;20027;-72
2022/03/09 01:50:21;;;;;;;6.73;2.77;;;;;;;-1.52;80.01;101906.06;6028527;28;20274;-70
2022/03/09 01:53:18;;;;;;;7.10;2.70;;;;;;;-1.88;78.72;101907.88;6028742;28;20034;-70
2022/03/09 01:56:13;;;;;;;5.47;2.50;;;;;;;-2.11;78.49;101907.56;6028280;28;20034;-70
2022/03/09 01:59:10;;;;;;;6.60;2.40;;;;;;;-1.74;79.20;101902.34;6028641;28;20045;-71
2022/03/09 02:02:06;;;;;;;8.32;2.35;;;;;;;-1.64;79.30;101888.19;6028711;28;20596;-71
2022/03/09 02:05:02;;;;;;;8.00;3.07;;;;;;;-1.87;78.32;101886.19;6028619;28;20049;-71
2022/03/09 02:11:11;;;;;;;6.47;2.63;;;;;;;-2.53;80.21;101909.41;6028453;28;20050;-71
2022/03/09 02:14:35;;;;;;;5.53;2.35;;;;;;;-2.34;82.45;101904.69;6028234;28;20453;-70
2022/03/09 02:17:30;;;;;;;4.97;2.47;;;;;;;-1.91;82.36;101901.91;6028177;28;20401;-70
2022/03/09 02:20:26;;;;;;;8.35;2.80;;;;;;;-2.01;81.43;101914.25;6027593;28;20038;-70
2022/03/09 02:23:22;;;;;;;4.75;2.33;;;;;;;-1.89;80.76;101902.72;6028928;28;20450;-70
2022/03/09 02:26:17;;;;;;;4.50;2.30;;;;;;;-1.74;81.63;101906.69;6026873;28;20038;-69
2022/03/09 02:29:13;;;;;;;5.57;2.43;;;;;;;-1.65;81.79;101902.09;6028424;28;20041;-69
2022/03/09 02:32:08;;;;;;;9.52;3.05;;;;;;;-1.53;81.82;101899.19;6027748;28;20026;-69
2022/03/09 02:35:04;;;;;;;9.88;3.15;;;;;;;-1.62;81.49;101894.22;6027968;28;20053;-69
2022/03/09 02:37:59;;;;;;;7.22;2.80;;;;;;;-1.86;80.78;101897.44;6028318;28;20037;-69
2022/03/09 02:40:54;;;;;;;6.47;2.63;;;;;;;-1.58;81.06;101897.59;6027229;28;20496;-69
2022/03/09 02:43:50;;;;;;;5.33;2.67;;;;;;;-1.77;82.05;101896.34;6028357;28;20045;-69
2022/03/09 02:46:45;;;;;;;5.23;2.10;;;;;;;-1.80;81.39;101886.91;6026338;28;20023;-68
2022/03/09 02:49:40;;;;;;;7.17;2.53;;;;;;;-2.03;81.28;101881.41;6027420;28;20022;-69
2022/03/09 02:52:38;;;;;;;4.45;2.05;;;;;;;-1.77;82.45;101884.22;6027387;28;20030;-68
2022/03/09 02:55:33;;;;;;;6.22;3.08;;;;;;;-2.12;82.39;101881.66;6027920;28;20040;-68
2022/03/09 02:58:29;;;;;;;6.27;2.50;;;;;;;-2.04;81.97;101872.75;6026915;28;20029;-68
2022/03/09 03:01:24;;;;;;;5.90;2.87;;;;;;;-2.16;81.40;101877.41;6026218;28;20022;-69
2022/03/09 03:04:19;;;;;;;5.97;2.70;;;;;;;-1.84;83.03;101890.44;6027427;28;20618;-69
2022/03/09 03:07:15;;;;;;;6.83;2.83;;;;;;;-2.04;82.50;101895.31;6027105;28;20281;-69
2022/03/09 03:10:10;;;;;;;6.17;2.33;;;;;;;-2.33;81.89;101892.53;6026707;28;20038;-69
2022/03/09 03:13:05;;;;;;;6.53;2.63;;;;;;;-2.30;82.20;101890.72;6027853;28;20118;-68
2022/03/09 03:16:01;;;;;;;5.97;2.50;;;;;;;-2.16;82.51;101891.25;6026705;28;20377;-68
2022/03/09 03:18:56;;;;;;;5.82;2.80;;;;;;;-2.37;82.03;101888.31;6027344;28;20025;-69
2022/03/09 03:21:51;;;;;;;10.10;3.47;;;;;;;-2.35;81.59;101894.31;6026485;28;20034;-69
2022/03/09 03:24:46;;;;;;;7.63;3.17;;;;;;;-2.28;82.26;101890.69;6025215;28;20486;-69
2022/03/09 03:27:42;;;;;;;5.07;2.23;;;;;;;-2.18;82.44;101899.97;6027444;28;20018;-69
2022/03/09 03:30:37;;;;;;;9.40;3.20;;;;;;;-2.03;81.75;101910.84;6025651;28;20022;-69
2022/03/09 03:33:32;;;;;;;10.90;3.17;;;;;;;-1.94;81.44;101912.38;6027452;28;20690;-69
2022/03/09 03:36:28;;;;;;;6.37;2.70;;;;;;;-2.00;81.27;101904.72;6026552;28;20120;-69
2022/03/09 03:39:23;;;;;;;12.40;3.47;;;;;;;-1.96;80.96;101906.38;6026311;28;20030;-69
2022/03/09 03:42:18;;;;;;;8.20;2.97;;;;;;;-2.17;81.14;101906.84;6026371;28;20372;-69
2022/03/09 03:45:14;;;;;;;7.43;3.23;;;;;;;-2.09;81.48;101905.78;6026155;28;20030;-69
2022/03/09 03:48:09;;;;;;;6.07;2.57;;;;;;;-2.20;81.94;101900.00;6026660;28;20026;-69
2022/03/09 04:02:40;;;;;;;7.90;3.35;;;;;;;-2.15;81.25;101905.97;6024826;28;20034;-69
2022/03/09 04:05:35;;;;;;;5.88;2.42;;;;;;;-1.89;82.64;101905.31;6025586;28;20034;-68
2022/03/09 04:08:30;;;;;;;6.50;2.83;;;;;;;-2.25;81.85;101908.78;6025627;28;20057;-69
2022/03/09 04:11:26;;;;;;;10.63;3.77;;;;;;;-2.32;82.17;101925.41;6026036;28;20038;-69
2022/03/09 04:14:22;;;;;;;6.20;2.72;;;;;;;-2.23;82.04;101913.06;6025596;28;20042;-69
2022/03/09 04:17:17;;;;;;;7.43;3.15;;;;;;;-2.26;81.96;101913.16;6025537;28;20073;-68
2022/03/09 04:20:14;;;;;;;7.53;2.10;;;;;;;-2.24;82.22;101915.69;6025113;28;20026;-68
2022/03/09 04:23:10;;;;;;;6.35;2.88;;;;;;;-2.25;82.13;101920.03;6025392;28;20030;-68
2022/03/09 04:26:06;;;;;;;5.22;2.70;;;;;;;-2.09;82.57;101925.75;6025915;28;20053;-68
2022/03/09 04:29:02;;;;;;;7.30;2.38;;;;;;;-2.07;82.68;101913.56;6026085;28;20077;-68
2022/03/09 04:31:57;;;;;;;7.78;3.15;;;;;;;-2.08;82.58;101917.91;6025162;28;20030;-69
2022/03/09 04:34:53;;;;;;;7.90;3.13;;;;;;;-2.33;82.24;101919.34;6025690;28;20046;-68
2022/03/09 04:37:48;;;;;;;7.72;3.28;;;;;;;-2.55;82.55;101918.13;6023973;28;20026;-68
2022/03/09 04:40:43;;;;;;;9.73;3.77;;;;;;;-2.42;82.61;101920.41;6025145;28;20466;-67
2022/03/09 04:43:38;;;;;;;8.07;3.40;;;;;;;-2.42;82.69;101923.00;6025679;28;20034;-68
2022/03/09 04:46:34;;;;;;;8.50;3.53;;;;;;;-2.47;82.54;101926.59;6024885;28;20044;-68
2022/03/09 04:49:29;;;;;;;6.53;3.50;;;;;;;-2.57;82.41;101918.16;6032272;28;20034;-68
2022/03/09 04:52:25;;;;;;;7.93;3.47;;;;;;;-2.50;82.64;101913.72;6024831;28;20041;-68
2022/03/09 04:55:20;;;;;;;6.60;2.78;;;;;;;-2.47;82.08;101919.66;6026083;28;20030;-68
2022/03/09 04:58:15;;;;;;;7.97;3.43;;;;;;;-2.55;82.49;101925.91;6025430;28;20105;-68
2022/03/09 05:01:11;;;;;;;7.55;2.70;;;;;;;-2.54;82.59;101917.25;6024938;28;20281;-68
2022/03/09 05:04:06;;;;;;;6.57;2.90;;;;;;;-2.50;82.74;101918.91;6025551;28;20462;-68
2022/03/09 05:07:01;;;;;;;8.37;2.97;;;;;;;-2.49;82.69;101920.59;6024499;28;20057;-69
2022/03/09 05:09:57;;;;;;;6.85;3.15;;;;;;;-2.55;82.91;101916.38;6028817;28;20105;-68
2022/03/09 05:12:52;;;;;;;7.57;3.10;;;;;;;-2.44;82.85;101924.78;6028669;28;20359;-68
2022/03/09 05:15:47;;;;;;;11.40;3.73;;;;;;;-2.36;82.93;101921.19;6030982;28;20381;-68
2022/03/09 05:18:43;;;;;;;12.03;3.80;;;;;;;-2.34;82.75;101920.25;6020264;28;20038;-68
2022/03/09 05:21:38;;;;;;;8.53;3.47;;;;;;;-2.32;81.98;101920.22;6032999;28;20668;-68
2022/03/09 05:24:33;;;;;;;9.73;3.33;;;;;;;-2.39;82.08;101911.69;6028219;28;20080;-69
2022/03/09 05:27:29;;;;;;;8.03;2.70;;;;;;;-2.43;82.48;101916.13;6029490;28;20381;-69
2022/03/09 05:30:24;;;;;;;8.32;3.40;;;;;;;-2.49;82.02;101921.44;6028845;28;20015;-68
2022/03/09 05:33:19;;;;;;;12.47;4.10;;;;;;;-2.44;82.06;101914.41;6029917;28;20039;-68
2022/03/09 05:36:15;;;;;;;10.67;3.70;;;;;;;-2.57;82.43;101912.97;6028632;28;20273;-67
2022/03/09 05:39:10;;;;;;;10.15;3.97;;;;;;;-2.55;82.26;101913.78;6029989;28;20117;-68
2022/03/09 05:42:06;;;;;;;10.32;4.28;;;;;;;-2.49;82.31;101921.44;6027877;28;20030;-68
2022/03/09 05:45:01;;;;;;;9.07;3.70;;;;;;;-2.48;82.26;101933.56;6029439;28;20023;-68
2022/03/09 05:47:57;;;;;;;8.82;2.92;;;;;;;-2.50;82.17;101930.09;6029552;28;20022;-67
2022/03/09 05:50:52;;;;;;;11.33;4.07;;;;;;;-2.42;82.00;101923.00;6028729;28;20072;-68
2022/03/09 05:53:47;;;;;;;10.20;3.30;;;;;;;-2.43;81.93;101930.84;6029824;28;20106;-68
2022/03/09 05:56:42;;;;;;;12.27;4.30;;;;;;;-2.38;81.84;101933.31;6029310;28;20049;-69
2022/03/09 05:59:38;;;;;;;9.70;3.63;;;;;;;-2.43;81.66;101936.91;6029577;28;20544;-71
2022/03/09 06:02:34;;;;;;;8.67;3.57;;;;;;;-2.12;82.72;101936.19;6033178;28;20030;-69
2022/03/09 06:05:29;;;;;;;8.65;3.05;;;;;;;-2.37;82.33;101940.25;6024028;28;20141;-68
2022/03/09 06:08:24;;;;;;;10.70;3.10;;;;;;;-2.44;82.38;101940.38;6029525;28;20037;-69
2022/03/09 06:11:20;;;;;;;10.33;3.60;;;;;;;-2.15;82.16;101946.66;6027630;28;20305;-68
2022/03/09 06:14:15;;;;;;;7.93;3.47;;;;;;;-2.07;82.62;101936.94;6029269;28;20032;-69
2022/03/09 06:17:10;;;;;;;10.67;3.40;;;;;;;-2.07;82.18;101944.75;6025856;28;20484;-68
2022/03/09 06:20:06;;;;;;;12.10;3.57;;;;;;;-1.98;82.28;101949.69;6027388;28;20026;-69
2022/03/09 06:23:01;;;;;;;13.43;4.53;;;;;;;-2.23;81.33;101956.38;6028647;28;20061;-68
2022/03/09 06:25:57;;;;;;;9.68;3.97;;;;;;;-2.31;81.78;101955.69;6028625;28;20483;-68
2022/03/09 06:28:52;;;;;;;15.43;3.87;;;;;;;-2.05;82.56;101949.00;6028834;28;20380;-67
2022/03/09 06:31:47;;;;;;;9.27;3.37;;;;;;;-2.08;81.84;101958.59;6027819;28;20479;-68
2022/03/09 06:34:43;;;;;;;8.77;3.30;;;;;;;-1.76;82.07;101965.63;6028181;28;20042;-69
2022/03/09 06:37:38;;;;;;;11.27;3.70;;;;;;;-1.47;81.36;101969.22;6027562;28;20040;-68
2022/03/09 06:40:33;;;;;;;14.00;4.47;;;;;;;-1.78;80.59;101968.28;6029554;28;20056;-67
2022/03/09 06:43:29;;;;;;;11.20;3.47;;;;;;;-1.57;80.46;101962.53;6043939;28;20462;-68
2022/03/09 06:46:24;;;;;;;11.45;4.47;;;;;;;-1.16;79.15;101964.06;6022461;28;20027;-69
2022/03/09 06:49:19;;;;;;;11.17;4.03;;;;;;;-1.06;78.87;101964.69;6028343;28;20089;-68
2022/03/09 06:52:15;;;;;;;11.87;4.43;;;;;;;-0.77;78.02;101957.78;6027212;28;20029;-69
2022/03/09 06:55:12;;;;;;;10.95;4.75;;;;;;;-0.49;76.94;101959.59;6027633;28;20034;-69
2022/03/09 06:58:07;;;;;;;7.55;3.97;;;;;;;-0.33;76.29;101956.47;6027845;28;20042;-69
2022/03/09 07:01:03;;;;;;;15.05;5.15;;;;;;;-0.25;75.84;101951.88;6027267;28;20049;-69
2022/03/09 07:03:58;;;;;;;15.40;4.30;;;;;;;-0.13;74.89;101945.41;6027610;28;20461;-69
2022/03/09 07:06:53;;;;;;;12.63;5.30;;;;;;;0.04;74.62;101950.09;6027447;28;20104;-68
2022/03/09 07:09:48;;;;;;;17.63;6.10;;;;;;;0.15;73.88;101945.41;6027400;28;20116;-68
2022/03/09 07:12:46;;;;;;;13.57;5.97;;;;;;;0.30;73.27;101950.13;6027177;28;20417;-69
2022/03/09 07:15:41;;;;;;;20.05;5.95;;;;;;;0.52;72.94;101962.38;6027533;28;20535;-69
2022/03/09 07:18:36;;;;;;;20.23;6.53;;;;;;;0.68;72.32;101959.28;6028001;28;20064;-69
2022/03/09 07:21:32;;;;;;;20.97;5.37;;;;;;;0.91;71.24;101957.56;6025903;28;20092;-69
2022/03/09 07:24:27;;;;;;;17.38;6.90;;;;;;;1.00;70.68;101956.38;6027021;28;20121;-69
2022/03/09 07:27:22;;;;;;;20.88;6.63;;;;;;;1.22;70.37;101953.84;6027247;28;20110;-69
2022/03/09 07:30:18;;;;;;;19.30;6.27;;;;;;;1.41;69.24;101947.03;6025013;28;20466;-70
2022/03/09 07:33:13;;;;;;;18.20;6.40;;;;;;;1.57;68.11;101937.69;6027025;28;20058;-69
2022/03/09 07:36:09;;;;;;;19.40;5.37;;;;;;;1.86;67.47;101939.16;6023904;28;20066;-70
2022/03/09 07:39:04;;;;;;;24.27;5.22;;;;;;;2.07;66.57;101940.91;6026273;28;20594;-69
2022/03/09 07:41:59;;;;;;;18.27;5.47;;;;;;;2.24;66.19;101949.81;6014903;28;20118;-69
2022/03/09 07:44:55;;;;;;;14.03;4.43;;;;;;;2.42;64.43;101949.03;6026924;28;20026;-69
2022/03/09 07:47:50;;;;;;;15.43;5.77;;;;;;;2.53;65.92;101963.47;6019258;28;20030;-70
2022/03/09 07:50:45;;;;;;;16.48;5.10;;;;;;;2.57;65.46;101965.03;6026435;28;20026;-70
2022/03/09 07:53:42;;;;;;;17.75;5.03;;;;;;;2.56;65.50;101950.22;6026379;28;20037;-69
2022/03/09 07:56:38;;;;;;;16.00;5.47;;;;;;;2.65;65.58;101966.41;6025932;28;20474;-70
2022/03/09 07:59:33;;;;;;;14.35;4.93;;;;;;;2.80;64.60;101964.91;6026651;28;20095;-71
2022/03/09 08:02:29;;;;;;;11.70;5.07;;;;;;;3.32;63.88;101960.81;6024962;28;20121;-70
2022/03/09 08:05:24;;;;;;;18.13;6.40;;;;;;;3.56;62.39;101968.44;6026109;28;20029;-71
2022/03/09 08:08:19;;;;;;;17.13;5.47;;;;;;;3.94;61.57;101976.31;6025994;28;20026;-70
2022/03/09 08:11:15;;;;;;;28.70;5.93;;;;;;;4.11;60.76;101971.06;6025720;28;20037;-71
2022/03/09 08:14:11;;;;;;;18.73;6.30;;;;;;;3.99;60.71;101972.53;6025453;28;20034;-71
2022/03/09 08:17:06;;;;;;;23.80;6.45;;;;;;;4.11;60.23;101971.06;6032401;28;20261;-69
2022/03/09 08:20:02;;;;;;;16.03;6.63;;;;;;;4.12;59.50;101972.78;6027977;28;20045;-69
2022/03/09 08:22:58;;;;;;;23.63;6.40;;;;;;;4.38;59.22;101966.25;6025560;28;20034;-71
2022/03/09 08:25:53;;;;;;;16.70;6.23;;;;;;;4.65;58.77;101970.13;6024580;28;20041;-72
2022/03/09 08:28:48;;;;;;;26.83;5.70;;;;;;;4.87;58.12;101962.00;6025844;28;20113;-71
2022/03/09 08:31:44;;;;;;;18.30;5.97;;;;;;;5.32;56.93;101959.63;6024472;28;20022;-71
2022/03/09 08:34:39;;;;;;;16.10;4.88;;;;;;;5.31;56.20;101960.53;6021011;28;20029;-71
2022/03/09 08:37:34;;;;;;;15.73;5.17;;;;;;;5.61;56.04;101965.91;6025043;28;20473;-72
2022/03/09 08:40:30;;;;;;;18.13;5.80;;;;;;;5.82;55.37;101960.34;6024204;28;20113;-72
2022/03/09 08:43:25;;;;;;;17.95;6.00;;;;;;;6.09;55.55;101962.41;6024528;28;20030;-71
2022/03/09 08:46:21;;;;;;;16.37;6.43;;;;;;;6.21;55.17;101966.97;6024842;28;20027;-71
2022/03/09 08:49:16;;;;;;;19.63;6.10;;;;;;;6.52;54.98;101972.19;6025346;28;20037;-69
2022/03/09 08:52:12;;;;;;;11.90;5.60;;;;;;;6.59;55.25;101968.25;6024293;28;20036;-73
2022/03/09 08:55:08;;;;;;;18.85;6.88;;;;;;;6.80;54.24;101961.69;6024931;28;20018;-70
2022/03/09 08:58:03;;;;;;;34.40;8.18;;;;;;;6.96;54.74;101966.88;6024084;28;20065;-70
2022/03/09 09:00:59;;;;;;;19.70;7.10;;;;;;;7.23;53.98;101965.22;6022326;28;20041;-71
2022/03/09 09:03:54;;;;;;;21.30;6.13;;;;;;;7.52;51.62;101971.34;6020463;28;20062;-72
2022/03/09 09:06:49;;;;;;;14.43;5.72;;;;;;;7.53;50.70;101967.75;6024916;28;20026;-69
2022/03/09 09:09:45;;;;;;;17.98;6.95;;;;;;;7.83;49.87;101976.38;6023467;28;20028;-71
2022/03/09 09:12:40;;;;;;;21.33;6.30;;;;;;;7.57;50.00;101967.50;6023928;28;20038;-70
2022/03/09 09:15:35;;;;;;;15.52;6.05;;;;;;;8.01;50.96;101969.94;6024510;28;20027;-72
2022/03/09 09:18:31;;;;;;;21.80;7.07;;;;;;;8.09;49.84;101974.72;6017157;28;20369;-70
2022/03/09 09:21:26;;;;;;;14.40;5.60;;;;;;;8.33;46.46;101976.66;6024596;28;20558;-72
2022/03/09 09:24:22;;;;;;;15.65;5.63;;;;;;;8.62;45.69;101976.50;6023004;28;20380;-70
2022/03/09 09:27:17;;;;;;;15.97;5.53;;;;;;;8.55;44.38;101975.25;6025100;28;20073;-72
2022/03/09 09:30:12;;;;;;;13.93;5.97;;;;;;;8.83;44.46;101978.56;6023549;28;20261;-70
2022/03/09 09:33:08;;;;;;;14.65;5.75;;;;;;;8.48;44.10;101981.91;6014455;28;20266;-71
2022/03/09 09:36:04;;;;;;;15.43;4.97;;;;;;;8.94;43.94;101972.56;6024217;28;20035;-71
2022/03/09 09:38:59;;;;;;;13.90;5.30;;;;;;;8.56;44.12;101982.25;6024244;28;20046;-70
2022/03/09 09:41:55;;;;;;;10.30;4.50;;;;;;;9.15;43.44;101976.38;6031377;28;20030;-70
2022/03/09 09:44:52;;;;;;;14.70;5.05;;;;;;;9.14;43.19;101985.25;6030055;28;20107;-71
2022/03/09 09:47:48;;;;;;;17.02;5.63;;;;;;;9.17;42.95;101979.75;6022624;28;20042;-72
2022/03/09 09:50:43;;;;;;;20.17;5.85;;;;;;;9.46;42.38;101978.56;6024797;28;20373;-70
2022/03/09 09:53:43;;;;;;;15.67;6.37;;;;;;;9.77;42.38;101981.72;6024438;28;20121;-71
2022/03/09 09:56:39;;;;;;;19.45;6.53;;;;;;;9.46;42.69;101975.06;6027310;28;20782;-70
2022/03/09 09:59:36;;;;;;;23.70;6.82;;;;;;;9.71;42.77;101983.00;6028501;28;20053;-72
2022/03/09 10:02:31;;;;;;;17.58;6.50;;;;;;;9.44;42.79;101975.19;6026303;28;20045;-73
2022/03/09 10:05:26;;;;;;;15.38;6.05;;;;;;;9.37;42.92;101976.59;6028289;28;20054;-70
2022/03/09 10:08:22;;;;;;;16.57;7.10;;;;;;;9.76;42.43;101970.25;6027128;28;20034;-71
2022/03/09 10:11:17;;;;;;;20.43;7.00;;;;;;;9.43;41.96;101973.50;6026723;28;20423;-72
2022/03/09 10:14:13;;;;;;;16.83;5.13;;;;;;;9.76;41.24;101970.25;6028640;28;20417;-70
2022/03/09 10:17:11;;;;;;;20.08;6.28;;;;;;;9.98;41.60;101959.81;6027747;28;20058;-69
2022/03/09 10:20:08;;;;;;;13.55;5.32;;;;;;;10.04;40.69;101969.97;6027786;28;20045;-71
2022/03/09 10:23:04;;;;;;;12.07;4.93;;;;;;;10.10;40.48;101966.03;6028022;28;20469;-71
2022/03/09 10:26:00;;;;;;;14.13;5.33;;;;;;;10.10;40.25;101966.03;6028090;28;20046;-72
2022/03/09 10:28:58;;;;;;;11.68;5.22;;;;;;;10.24;39.37;101963.25;6022043;28;20014;-72
2022/03/09 10:31:59;;;;;;;15.32;5.35;;;;;;;10.46;39.76;101967.81;6031099;28;20389;-70
2022/03/09 10:34:55;;;;;;;10.80;4.65;;;;;;;10.55;39.25;101967.09;6023650;28;20027;-71
2022/03/09 10:37:50;;;;;;;13.68;4.55;;;;;;;10.73;39.22;101961.25;6021211;28;20409;-72
2022/03/09 10:40:48;;;;;;;16.67;4.93;;;;;;;11.14;38.38;101954.59;6019380;28;20411;-71
2022/03/09 10:43:47;;;;;;;17.25;7.43;;;;;;;11.62;37.78;101961.34;6027723;28;20030;-70
2022/03/09 10:46:52;;;;;;;13.48;5.53;;;;;;;11.30;37.38;101960.41;6027306;28;20022;-70
2022/03/09 10:49:47;;;;;;;12.80;5.28;;;;;;;10.87;37.21;101962.84;6026995;28;20508;-72
2022/03/09 10:52:51;;;;;;;15.30;5.43;;;;;;;11.74;37.51;101959.56;6025149;28;20042;-71
2022/03/09 10:55:47;;;;;;;12.77;4.88;;;;;;;11.62;36.77;101958.69;6027043;28;20056;-73
2022/03/09 10:58:42;;;;;;;12.55;4.75;;;;;;;11.54;36.30;101962.94;6032546;28;20196;-72
2022/03/09 11:01:38;;;;;;;11.97;4.87;;;;;;;11.41;36.40;101963.06;6027035;28;20085;-72
2022/03/09 11:04:34;;;;;;;14.50;5.95;;;;;;;11.82;36.18;101952.66;6026432;28;20065;-72
2022/03/09 11:07:29;;;;;;;9.75;5.10;;;;;;;11.90;35.34;101952.88;6021817;28;20363;-72
2022/03/09 11:10:26;;;;;;;13.43;5.18;;;;;;;11.88;36.34;101960.13;6018583;28;20038;-72
2022/03/09 11:13:22;;;;;;;11.63;5.03;;;;;;;11.91;35.30;101956.38;6025525;28;20038;-72
2022/03/09 11:16:18;;;;;;;8.95;4.43;;;;;;;11.73;35.14;101958.72;6027642;28;20488;-72
2022/03/09 11:19:14;;;;;;;12.00;5.18;;;;;;;11.10;36.24;101955.78;6034440;28;20030;-72
2022/03/09 11:22:09;;;;;;;11.60;4.85;;;;;;;11.33;35.76;101949.53;6026302;28;20037;-71
2022/03/09 11:25:05;;;;;;;10.10;4.53;;;;;;;11.78;35.79;101940.59;6026431;28;20034;-72
2022/03/09 11:28:01;;;;;;;11.35;4.93;;;;;;;11.92;36.23;101937.66;6027453;28;20046;-72
2022/03/09 11:30:58;;;;;;;12.73;5.30;;;;;;;11.73;34.89;101937.47;6026621;28;20044;-71
2022/03/09 11:33:54;;;;;;;11.00;4.72;;;;;;;11.52;35.20;101930.34;6026952;28;20061;-69
2022/03/09 11:36:59;;;;;;;15.52;4.35;;;;;;;11.57;35.50;101936.97;6027280;28;20034;-73
2022/03/09 11:40:06;;;;;;;9.35;4.53;;;;;;;11.63;34.02;101941.78;6025242;28;20126;-72
2022/03/09 11:43:26;;;;;;;10.98;3.83;;;;;;;11.78;33.95;101934.44;6026544;28;20038;-69
2022/03/09 11:46:21;;;;;;;11.55;4.03;;;;;;;11.72;32.93;101914.50;6027281;28;20030;-70
2022/03/09 11:49:16;;;;;;;8.50;4.00;;;;;;;11.92;33.51;101921.72;6026410;28;20076;-73
2022/03/09 11:52:15;;;;;;;8.40;3.80;;;;;;;12.10;32.93;101927.31;6022201;28;20157;-71
2022/03/09 11:55:17;;;;;;;8.48;4.40;;;;;;;12.23;34.04;101914.69;6026600;28;20030;-72
2022/03/09 11:58:14;;;;;;;8.40;4.07;;;;;;;12.49;31.15;101920.53;6026845;28;20097;-71
2022/03/09 12:01:09;;;;;;;8.23;3.55;;;;;;;12.50;31.12;101908.91;6025954;28;20030;-72
2022/03/09 12:04:48;;;;;;;11.73;4.17;;;;;;;12.61;31.79;101908.00;6026207;28;20026;-70
2022/03/09 12:07:43;;;;;;;10.70;4.90;;;;;;;12.30;32.66;101909.72;6020561;28;20029;-71
2022/03/09 12:10:45;;;;;;;11.70;4.50;;;;;;;12.59;32.58;101910.78;6025024;28;20057;-72
2022/03/09 12:13:43;;;;;;;9.48;4.43;;;;;;;12.60;32.00;101916.97;6025704;28;20046;-72
2022/03/09 12:16:58;;;;;;;7.28;3.88;;;;;;;12.35;32.85;101902.19;6026707;28;20034;-70
2022/03/09 12:20:17;;;;;;;12.60;6.30;;;;;;;12.47;32.59;101906.50;6025474;28;20030;-71
2022/03/09 12:23:15;;;;;;;9.10;4.20;;;;;;;12.41;31.65;101894.56;6025821;28;20373;-71
2022/03/09 12:26:40;;;;;;;10.18;4.57;;;;;;;12.61;32.36;101908.81;6025711;28;20042;-71
2022/03/09 12:29:37;;;;;;;9.40;4.07;;;;;;;12.87;32.11;101891.50;6026132;28;20018;-69
2022/03/09 12:32:39;;;;;;;10.35;4.50;;;;;;;12.57;32.56;101891.44;6015015;28;20034;-70
2022/03/09 12:35:34;;;;;;;8.70;4.65;;;;;;;12.35;32.41;101881.78;6026282;28;20109;-73
2022/03/09 12:38:40;;;;;;;10.20;6.00;;;;;;;12.62;32.83;101889.25;6025834;28;20143;-72
2022/03/09 12:41:39;;;;;;;10.30;4.18;;;;;;;13.04;32.09;101890.88;6030014;28;20466;-71
2022/03/09 12:44:36;;;;;;;8.68;3.78;;;;;;;13.48;31.50;101891.50;6032012;28;20089;-69
2022/03/09 12:47:35;;;;;;;7.85;3.70;;;;;;;12.99;31.12;101881.63;6016923;28;20043;-71
2022/03/09 12:50:30;;;;;;;9.73;4.38;;;;;;;13.17;31.20;101887.19;6022875;28;20045;-70
2022/03/09 12:53:25;;;;;;;10.73;4.17;;;;;;;12.90;31.24;101882.41;6024127;28;20034;-71
2022/03/09 12:56:23;;;;;;;11.47;3.90;;;;;;;13.28;30.58;101887.94;6025507;28;20030;-72
2022/03/09 12:59:19;;;;;;;9.40;4.43;;;;;;;12.96;30.63;101888.03;6015738;28;20061;-70
2022/03/09 13:02:14;;;;;;;10.73;4.17;;;;;;;13.00;31.01;101888.59;6024208;28;20466;-72
2022/03/09 13:05:11;;;;;;;9.90;4.20;;;;;;;12.95;31.33;101890.84;6025153;28;20466;-70
2022/03/09 13:08:08;;;;;;;10.30;4.75;;;;;;;12.79;30.84;101886.00;6025050;28;20026;-69
2022/03/09 13:11:04;;;;;;;11.98;4.63;;;;;;;12.65;31.37;101888.97;6024693;28;20042;-70
2022/03/09 13:14:00;;;;;;;9.13;4.47;;;;;;;12.87;31.16;101886.19;6024268;28;20034;-72
2022/03/09 13:17:08;;;;;;;6.65;4.00;;;;;;;12.84;30.90;101882.94;6040201;28;20038;-71
2022/03/09 13:20:03;;;;;;;8.38;4.20;;;;;;;12.90;31.24;101888.56;6024615;28;20053;-70
2022/03/09 13:22:59;;;;;;;10.27;4.97;;;;;;;12.78;31.11;101891.44;6019322;28;20038;-71
2022/03/09 13:25:54;;;;;;;10.13;4.50;;;;;;;12.87;30.73;101882.66;6023777;28;20380;-71
2022/03/09 13:28:59;;;;;;;7.57;4.43;;;;;;;13.10;30.52;101885.03;6024803;28;20277;-72
2022/03/09 13:32:01;;;;;;;9.15;4.35;;;;;;;13.00;30.27;101877.97;6028445;28;20270;-72
2022/03/09 13:34:57;;;;;;;8.43;4.38;;;;;;;12.96;30.67;101887.22;6029047;28;20065;-71
2022/03/09 13:38:01;;;;;;;8.45;4.10;;;;;;;13.27;30.16;101885.38;6027246;28;20061;-72
2022/03/09 13:41:05;;;;;;;9.68;4.32;;;;;;;13.15;29.88;101873.16;6028908;28;20145;-70
2022/03/09 13:44:00;;;;;;;8.55;3.95;;;;;;;13.03;30.56;101878.53;6028244;28;20041;-72
2022/03/09 13:47:10;;;;;;;8.27;4.37;;;;;;;13.07;30.25;101866.66;6034073;28;20457;-71
2022/03/09 13:50:15;;;;;;;8.52;4.35;;;;;;;12.96;30.72;101866.72;6030866;28;20034;-71
2022/03/09 13:53:11;;;;;;;15.15;5.10;;;;;;;12.90;29.88;101867.28;6035494;28;20473;-72
2022/03/09 13:56:19;;;;;;;10.20;4.28;;;;;;;13.10;31.09;101860.22;6031226;28;20046;-70